sensor_id;sensor_type;location;lat;lon;timestamp;P1;durP1;ratioP1;P2;durP2;ratioP2
7729;SDS011;3908;52.310;7.230;2023-06-01T00:01:38;12.43;;;7.83;;
7729;SDS011;3908;52.310;7.230;2023-06-01T00:04:25;15.63;;;8.07;;
7729;SDS011;3908;52.310;7.230;2023-06-01T00:07:12;16.73;;;7.67;;
7729;SDS011;3908;52.310;7.230;2023-06-01T00:10:00;14.37;;;7.90;;
7729;SDS011;3908;52.310;7.230;2023-06-01T00:12:47;15.20;;;6.77;;
7729;SDS011;3908;52.310;7.230;2023-06-01T00:15:34;16.83;;;7.60;;
7729;SDS011;3908;52.310;7.230;2023-06-01T00:18:21;13.70;;;7.30;;
7729;SDS011;3908;52.310;7.230;2023-06-01T00:21:08;17.87;;;7.67;;
7729;SDS011;3908;52.310;7.230;2023-06-01T00:23:55;17.67;;;7.60;;
7729;SDS011;3908;52.310;7.230;2023-06-01T00:26:43;11.73;;;6.37;;
7729;SDS011;3908;52.310;7.230;2023-06-01T00:29:30;13.87;;;7.20;;
7729;SDS011;3908;52.310;7.230;2023-06-01T00:32:17;16.83;;;8.40;;
7729;SDS011;3908;52.310;7.230;2023-06-01T00:35:04;21.00;;;7.10;;
7729;SDS011;3908;52.310;7.230;2023-06-01T00:37:51;9.63;;;6.60;;
7729;SDS011;3908;52.310;7.230;2023-06-01T00:40:38;15.03;;;7.37;;
7729;SDS011;3908;52.310;7.230;2023-06-01T00:43:26;14.33;;;7.33;;
7729;SDS011;3908;52.310;7.230;2023-06-01T00:46:13;18.43;;;7.07;;
7729;SDS011;3908;52.310;7.230;2023-06-01T00:49:00;12.17;;;6.37;;
7729;SDS011;3908;52.310;7.230;2023-06-01T00:51:46;14.57;;;6.47;;
7729;SDS011;3908;52.310;7.230;2023-06-01T00:54:33;15.70;;;7.60;;
7729;SDS011;3908;52.310;7.230;2023-06-01T00:57:20;15.53;;;6.87;;
7729;SDS011;3908;52.310;7.230;2023-06-01T01:00:13;12.57;;;6.60;;
7729;SDS011;3908;52.310;7.230;2023-06-01T01:03:00;14.70;;;7.87;;
7729;SDS011;3908;52.310;7.230;2023-06-01T01:05:54;18.70;;;8.33;;
7729;SDS011;3908;52.310;7.230;2023-06-01T01:08:46;14.33;;;7.77;;
7729;SDS011;3908;52.310;7.230;2023-06-01T01:11:36;15.93;;;7.03;;
7729;SDS011;3908;52.310;7.230;2023-06-01T01:14:24;15.60;;;7.63;;
7729;SDS011;3908;52.310;7.230;2023-06-01T01:17:15;13.37;;;7.30;;
7729;SDS011;3908;52.310;7.230;2023-06-01T01:20:03;17.53;;;8.00;;
7729;SDS011;3908;52.310;7.230;2023-06-01T01:23:02;14.00;;;7.77;;
7729;SDS011;3908;52.310;7.230;2023-06-01T01:28:56;15.00;;;7.17;;
7729;SDS011;3908;52.310;7.230;2023-06-01T01:31:46;22.57;;;7.77;;
7729;SDS011;3908;52.310;7.230;2023-06-01T01:34:35;17.90;;;8.53;;
7729;SDS011;3908;52.310;7.230;2023-06-01T01:37:24;14.73;;;8.23;;
7729;SDS011;3908;52.310;7.230;2023-06-01T01:40:11;13.40;;;8.27;;
7729;SDS011;3908;52.310;7.230;2023-06-01T01:42:58;19.23;;;9.20;;
7729;SDS011;3908;52.310;7.230;2023-06-01T01:45:47;15.47;;;8.17;;
7729;SDS011;3908;52.310;7.230;2023-06-01T01:48:37;16.53;;;8.87;;
7729;SDS011;3908;52.310;7.230;2023-06-01T01:51:27;18.50;;;8.87;;
7729;SDS011;3908;52.310;7.230;2023-06-01T01:54:16;19.93;;;8.73;;
7729;SDS011;3908;52.310;7.230;2023-06-01T01:57:04;16.07;;;8.70;;
7729;SDS011;3908;52.310;7.230;2023-06-01T01:59:51;16.43;;;8.60;;
7729;SDS011;3908;52.310;7.230;2023-06-01T02:02:40;18.67;;;8.90;;
7729;SDS011;3908;52.310;7.230;2023-06-01T02:05:27;17.03;;;8.30;;
7729;SDS011;3908;52.310;7.230;2023-06-01T02:08:14;16.03;;;8.93;;
7729;SDS011;3908;52.310;7.230;2023-06-01T02:11:01;13.63;;;9.17;;
7729;SDS011;3908;52.310;7.230;2023-06-01T02:13:48;19.03;;;8.73;;
7729;SDS011;3908;52.310;7.230;2023-06-01T02:16:34;18.33;;;8.67;;
7729;SDS011;3908;52.310;7.230;2023-06-01T02:19:23;18.57;;;9.23;;
7729;SDS011;3908;52.310;7.230;2023-06-01T02:22:09;22.47;;;7.93;;
7729;SDS011;3908;52.310;7.230;2023-06-01T02:24:56;16.07;;;7.77;;
7729;SDS011;3908;52.310;7.230;2023-06-01T02:27:43;20.33;;;8.53;;
7729;SDS011;3908;52.310;7.230;2023-06-01T02:30:30;17.60;;;8.00;;
7729;SDS011;3908;52.310;7.230;2023-06-01T02:33:17;13.50;;;7.97;;
7729;SDS011;3908;52.310;7.230;2023-06-01T02:36:05;23.07;;;7.97;;
7729;SDS011;3908;52.310;7.230;2023-06-01T02:38:52;15.13;;;7.40;;
7729;SDS011;3908;52.310;7.230;2023-06-01T02:41:39;17.57;;;6.90;;
7729;SDS011;3908;52.310;7.230;2023-06-01T02:44:26;13.93;;;8.03;;
7729;SDS011;3908;52.310;7.230;2023-06-01T02:47:12;19.27;;;7.83;;
7729;SDS011;3908;52.310;7.230;2023-06-01T02:49:59;15.70;;;7.23;;
7729;SDS011;3908;52.310;7.230;2023-06-01T02:52:47;19.83;;;8.37;;
7729;SDS011;3908;52.310;7.230;2023-06-01T02:55:34;15.10;;;7.27;;
7729;SDS011;3908;52.310;7.230;2023-06-01T02:58:21;19.03;;;7.73;;
7729;SDS011;3908;52.310;7.230;2023-06-01T03:01:08;17.50;;;8.17;;
7729;SDS011;3908;52.310;7.230;2023-06-01T03:03:57;18.00;;;7.63;;
7729;SDS011;3908;52.310;7.230;2023-06-01T03:06:43;11.63;;;7.10;;
7729;SDS011;3908;52.310;7.230;2023-06-01T03:09:32;13.30;;;7.67;;
7729;SDS011;3908;52.310;7.230;2023-06-01T03:12:19;19.43;;;8.83;;
7729;SDS011;3908;52.310;7.230;2023-06-01T03:15:06;17.80;;;7.67;;
7729;SDS011;3908;52.310;7.230;2023-06-01T03:17:53;13.10;;;6.90;;
7729;SDS011;3908;52.310;7.230;2023-06-01T03:20:40;17.10;;;6.93;;
7729;SDS011;3908;52.310;7.230;2023-06-01T03:23:26;15.67;;;8.13;;
7729;SDS011;3908;52.310;7.230;2023-06-01T03:26:16;13.07;;;7.10;;
7729;SDS011;3908;52.310;7.230;2023-06-01T03:29:04;12.53;;;6.57;;
7729;SDS011;3908;52.310;7.230;2023-06-01T03:31:50;13.47;;;6.90;;
7729;SDS011;3908;52.310;7.230;2023-06-01T03:34:37;13.97;;;6.77;;
7729;SDS011;3908;52.310;7.230;2023-06-01T03:37:25;14.73;;;7.07;;
7729;SDS011;3908;52.310;7.230;2023-06-01T03:40:12;14.07;;;6.53;;
7729;SDS011;3908;52.310;7.230;2023-06-01T03:43:00;14.30;;;7.87;;
7729;SDS011;3908;52.310;7.230;2023-06-01T03:45:47;21.47;;;7.10;;
7729;SDS011;3908;52.310;7.230;2023-06-01T03:48:34;16.60;;;6.30;;
7729;SDS011;3908;52.310;7.230;2023-06-01T03:51:21;18.43;;;6.53;;
7729;SDS011;3908;52.310;7.230;2023-06-01T03:54:08;14.70;;;6.37;;
7729;SDS011;3908;52.310;7.230;2023-06-01T03:56:55;17.03;;;6.73;;
7729;SDS011;3908;52.310;7.230;2023-06-01T03:59:44;16.63;;;6.90;;
7729;SDS011;3908;52.310;7.230;2023-06-01T04:02:30;14.10;;;6.30;;
7729;SDS011;3908;52.310;7.230;2023-06-01T04:05:17;18.57;;;6.40;;
7729;SDS011;3908;52.310;7.230;2023-06-01T04:08:04;18.50;;;6.83;;
7729;SDS011;3908;52.310;7.230;2023-06-01T04:10:51;16.23;;;7.00;;
7729;SDS011;3908;52.310;7.230;2023-06-01T04:13:38;14.27;;;6.30;;
7729;SDS011;3908;52.310;7.230;2023-06-01T04:16:26;14.67;;;6.90;;
7729;SDS011;3908;52.310;7.230;2023-06-01T04:19:13;12.00;;;6.00;;
7729;SDS011;3908;52.310;7.230;2023-06-01T04:22:00;12.97;;;6.40;;
7729;SDS011;3908;52.310;7.230;2023-06-01T04:24:47;16.23;;;6.47;;
7729;SDS011;3908;52.310;7.230;2023-06-01T04:27:34;16.43;;;7.97;;
7729;SDS011;3908;52.310;7.230;2023-06-01T04:30:22;13.20;;;6.20;;
7729;SDS011;3908;52.310;7.230;2023-06-01T04:33:10;13.33;;;6.37;;
7729;SDS011;3908;52.310;7.230;2023-06-01T04:35:57;14.13;;;6.97;;
7729;SDS011;3908;52.310;7.230;2023-06-01T04:38:44;13.77;;;6.13;;
7729;SDS011;3908;52.310;7.230;2023-06-01T04:41:31;18.67;;;7.07;;
7729;SDS011;3908;52.310;7.230;2023-06-01T04:44:20;13.83;;;7.40;;
7729;SDS011;3908;52.310;7.230;2023-06-01T04:47:08;14.47;;;7.23;;
7729;SDS011;3908;52.310;7.230;2023-06-01T04:49:56;15.43;;;7.27;;
7729;SDS011;3908;52.310;7.230;2023-06-01T04:52:43;14.43;;;6.73;;
7729;SDS011;3908;52.310;7.230;2023-06-01T04:55:30;18.50;;;6.83;;
7729;SDS011;3908;52.310;7.230;2023-06-01T04:58:17;21.07;;;7.93;;
7729;SDS011;3908;52.310;7.230;2023-06-01T05:01:04;14.43;;;7.17;;
7729;SDS011;3908;52.310;7.230;2023-06-01T05:03:52;18.03;;;7.07;;
7729;SDS011;3908;52.310;7.230;2023-06-01T05:06:42;14.10;;;6.77;;
7729;SDS011;3908;52.310;7.230;2023-06-01T05:09:28;14.47;;;7.93;;
7729;SDS011;3908;52.310;7.230;2023-06-01T05:12:15;21.50;;;7.83;;
7729;SDS011;3908;52.310;7.230;2023-06-01T05:15:02;17.03;;;6.87;;
7729;SDS011;3908;52.310;7.230;2023-06-01T05:17:49;20.87;;;7.17;;
7729;SDS011;3908;52.310;7.230;2023-06-01T05:20:36;16.63;;;5.97;;
7729;SDS011;3908;52.310;7.230;2023-06-01T05:23:24;16.87;;;7.57;;
7729;SDS011;3908;52.310;7.230;2023-06-01T05:26:11;15.57;;;6.83;;
7729;SDS011;3908;52.310;7.230;2023-06-01T05:28:59;13.97;;;6.57;;
7729;SDS011;3908;52.310;7.230;2023-06-01T05:31:46;18.67;;;7.27;;
7729;SDS011;3908;52.310;7.230;2023-06-01T05:34:33;15.17;;;7.33;;
7729;SDS011;3908;52.310;7.230;2023-06-01T05:37:20;14.27;;;7.20;;
7729;SDS011;3908;52.310;7.230;2023-06-01T05:40:09;16.97;;;7.97;;
7729;SDS011;3908;52.310;7.230;2023-06-01T05:42:55;16.17;;;6.83;;
7729;SDS011;3908;52.310;7.230;2023-06-01T05:45:42;13.40;;;6.40;;
7729;SDS011;3908;52.310;7.230;2023-06-01T05:48:29;17.53;;;6.80;;
7729;SDS011;3908;52.310;7.230;2023-06-01T05:51:16;13.43;;;7.10;;
7729;SDS011;3908;52.310;7.230;2023-06-01T05:54:03;19.00;;;6.67;;
7729;SDS011;3908;52.310;7.230;2023-06-01T05:56:51;13.83;;;6.63;;
7729;SDS011;3908;52.310;7.230;2023-06-01T05:59:38;20.10;;;6.93;;
7729;SDS011;3908;52.310;7.230;2023-06-01T06:02:25;14.50;;;6.03;;
7729;SDS011;3908;52.310;7.230;2023-06-01T06:05:12;19.30;;;6.50;;
7729;SDS011;3908;52.310;7.230;2023-06-01T06:07:58;19.20;;;6.37;;
7729;SDS011;3908;52.310;7.230;2023-06-01T06:10:46;16.07;;;6.20;;
7729;SDS011;3908;52.310;7.230;2023-06-01T06:13:34;14.97;;;6.23;;
7729;SDS011;3908;52.310;7.230;2023-06-01T06:16:21;12.87;;;5.20;;
7729;SDS011;3908;52.310;7.230;2023-06-01T06:19:08;10.53;;;5.60;;
7729;SDS011;3908;52.310;7.230;2023-06-01T06:21:55;15.50;;;6.03;;
7729;SDS011;3908;52.310;7.230;2023-06-01T06:24:41;11.77;;;5.73;;
7729;SDS011;3908;52.310;7.230;2023-06-01T06:27:28;12.90;;;5.43;;
7729;SDS011;3908;52.310;7.230;2023-06-01T06:30:17;11.27;;;5.10;;
7729;SDS011;3908;52.310;7.230;2023-06-01T06:33:03;10.87;;;5.23;;
7729;SDS011;3908;52.310;7.230;2023-06-01T06:35:50;18.20;;;5.93;;
7729;SDS011;3908;52.310;7.230;2023-06-01T06:38:37;10.10;;;5.80;;
7729;SDS011;3908;52.310;7.230;2023-06-01T06:41:24;8.90;;;5.40;;
7729;SDS011;3908;52.310;7.230;2023-06-01T06:44:10;13.43;;;5.43;;
7729;SDS011;3908;52.310;7.230;2023-06-01T06:46:59;11.77;;;5.37;;
7729;SDS011;3908;52.310;7.230;2023-06-01T06:49:48;7.87;;;4.80;;
7729;SDS011;3908;52.310;7.230;2023-06-01T06:52:35;8.90;;;4.57;;
7729;SDS011;3908;52.310;7.230;2023-06-01T06:55:22;11.43;;;4.93;;
7729;SDS011;3908;52.310;7.230;2023-06-01T06:58:09;7.40;;;4.60;;
7729;SDS011;3908;52.310;7.230;2023-06-01T07:00:56;12.63;;;5.07;;
7729;SDS011;3908;52.310;7.230;2023-06-01T07:03:44;7.43;;;4.67;;
7729;SDS011;3908;52.310;7.230;2023-06-01T07:06:31;10.97;;;5.33;;
7729;SDS011;3908;52.310;7.230;2023-06-01T07:09:19;11.37;;;4.80;;
7729;SDS011;3908;52.310;7.230;2023-06-01T07:12:06;9.93;;;4.97;;
7729;SDS011;3908;52.310;7.230;2023-06-01T07:14:53;13.10;;;5.13;;
7729;SDS011;3908;52.310;7.230;2023-06-01T07:17:40;9.20;;;5.23;;
7729;SDS011;3908;52.310;7.230;2023-06-01T07:20:28;10.03;;;5.03;;
7729;SDS011;3908;52.310;7.230;2023-06-01T07:23:15;9.73;;;5.17;;
7729;SDS011;3908;52.310;7.230;2023-06-01T07:26:02;11.63;;;6.37;;
7729;SDS011;3908;52.310;7.230;2023-06-01T07:28:49;8.27;;;5.23;;
7729;SDS011;3908;52.310;7.230;2023-06-01T07:31:39;15.70;;;6.30;;
7729;SDS011;3908;52.310;7.230;2023-06-01T07:34:26;15.37;;;5.97;;
7729;SDS011;3908;52.310;7.230;2023-06-01T07:37:14;14.97;;;6.23;;
7729;SDS011;3908;52.310;7.230;2023-06-01T07:40:01;12.13;;;5.93;;
7729;SDS011;3908;52.310;7.230;2023-06-01T07:42:48;14.07;;;6.43;;
7729;SDS011;3908;52.310;7.230;2023-06-01T07:45:35;17.60;;;5.53;;
7729;SDS011;3908;52.310;7.230;2023-06-01T07:48:22;14.87;;;6.17;;
7729;SDS011;3908;52.310;7.230;2023-06-01T07:51:08;7.73;;;5.63;;
7729;SDS011;3908;52.310;7.230;2023-06-01T07:53:56;10.27;;;5.73;;
7729;SDS011;3908;52.310;7.230;2023-06-01T07:56:45;12.77;;;5.80;;
7729;SDS011;3908;52.310;7.230;2023-06-01T07:59:32;10.37;;;5.67;;
7729;SDS011;3908;52.310;7.230;2023-06-01T08:02:19;10.20;;;5.57;;
7729;SDS011;3908;52.310;7.230;2023-06-01T08:05:07;9.63;;;5.67;;
7729;SDS011;3908;52.310;7.230;2023-06-01T08:07:55;14.10;;;6.17;;
7729;SDS011;3908;52.310;7.230;2023-06-01T08:10:43;10.87;;;5.63;;
7729;SDS011;3908;52.310;7.230;2023-06-01T08:13:30;9.20;;;5.53;;
7729;SDS011;3908;52.310;7.230;2023-06-01T08:16:17;15.53;;;6.70;;
7729;SDS011;3908;52.310;7.230;2023-06-01T08:19:03;9.30;;;5.73;;
7729;SDS011;3908;52.310;7.230;2023-06-01T08:21:50;14.20;;;5.97;;
7729;SDS011;3908;52.310;7.230;2023-06-01T08:24:37;9.27;;;5.43;;
7729;SDS011;3908;52.310;7.230;2023-06-01T08:27:25;14.00;;;5.40;;
7729;SDS011;3908;52.310;7.230;2023-06-01T08:30:13;13.33;;;6.60;;
7729;SDS011;3908;52.310;7.230;2023-06-01T08:33:00;11.97;;;6.20;;
7729;SDS011;3908;52.310;7.230;2023-06-01T08:35:48;8.53;;;4.33;;
7729;SDS011;3908;52.310;7.230;2023-06-01T08:38:35;9.10;;;4.90;;
7729;SDS011;3908;52.310;7.230;2023-06-01T08:41:24;9.00;;;4.97;;
7729;SDS011;3908;52.310;7.230;2023-06-01T08:44:12;9.23;;;5.87;;
7729;SDS011;3908;52.310;7.230;2023-06-01T08:47:00;13.57;;;6.10;;
7729;SDS011;3908;52.310;7.230;2023-06-01T08:49:47;10.10;;;5.43;;
7729;SDS011;3908;52.310;7.230;2023-06-01T08:52:34;8.57;;;5.17;;
7729;SDS011;3908;52.310;7.230;2023-06-01T08:55:21;9.60;;;5.37;;
7729;SDS011;3908;52.310;7.230;2023-06-01T08:58:08;12.00;;;5.90;;
7729;SDS011;3908;52.310;7.230;2023-06-01T09:00:57;15.43;;;5.87;;
7729;SDS011;3908;52.310;7.230;2023-06-01T09:03:44;11.90;;;5.93;;
7729;SDS011;3908;52.310;7.230;2023-06-01T09:06:31;9.50;;;5.77;;
7729;SDS011;3908;52.310;7.230;2023-06-01T09:09:18;16.30;;;6.23;;
7729;SDS011;3908;52.310;7.230;2023-06-01T09:12:21;9.13;;;5.80;;
7729;SDS011;3908;52.310;7.230;2023-06-01T09:15:10;9.53;;;6.57;;
7729;SDS011;3908;52.310;7.230;2023-06-01T09:18:05;12.10;;;6.50;;
7729;SDS011;3908;52.310;7.230;2023-06-01T09:20:52;10.53;;;6.57;;
7729;SDS011;3908;52.310;7.230;2023-06-01T09:23:41;12.33;;;6.60;;
7729;SDS011;3908;52.310;7.230;2023-06-01T09:26:28;13.33;;;6.77;;
7729;SDS011;3908;52.310;7.230;2023-06-01T09:29:15;11.23;;;6.00;;
7729;SDS011;3908;52.310;7.230;2023-06-01T09:32:02;17.77;;;6.40;;
7729;SDS011;3908;52.310;7.230;2023-06-01T09:34:51;13.53;;;7.33;;
7729;SDS011;3908;52.310;7.230;2023-06-01T09:37:41;11.93;;;6.60;;
7729;SDS011;3908;52.310;7.230;2023-06-01T09:40:39;12.43;;;7.07;;
7729;SDS011;3908;52.310;7.230;2023-06-01T09:43:26;13.43;;;6.10;;
7729;SDS011;3908;52.310;7.230;2023-06-01T09:46:13;16.90;;;5.30;;
7729;SDS011;3908;52.310;7.230;2023-06-01T09:49:04;12.63;;;6.20;;
7729;SDS011;3908;52.310;7.230;2023-06-01T09:51:53;11.33;;;4.87;;
7729;SDS011;3908;52.310;7.230;2023-06-01T09:54:54;10.53;;;4.60;;
7729;SDS011;3908;52.310;7.230;2023-06-01T09:57:43;10.40;;;4.23;;
7729;SDS011;3908;52.310;7.230;2023-06-01T10:00:30;6.57;;;3.40;;
7729;SDS011;3908;52.310;7.230;2023-06-01T10:03:19;8.73;;;4.13;;
7729;SDS011;3908;52.310;7.230;2023-06-01T10:06:05;7.80;;;4.00;;
7729;SDS011;3908;52.310;7.230;2023-06-01T10:08:54;7.53;;;3.50;;
7729;SDS011;3908;52.310;7.230;2023-06-01T10:11:42;4.13;;;3.33;;
7729;SDS011;3908;52.310;7.230;2023-06-01T10:14:28;3.43;;;2.70;;
7729;SDS011;3908;52.310;7.230;2023-06-01T10:17:17;5.33;;;3.30;;
7729;SDS011;3908;52.310;7.230;2023-06-01T10:20:04;6.10;;;3.50;;
7729;SDS011;3908;52.310;7.230;2023-06-01T10:22:52;4.73;;;3.37;;
7729;SDS011;3908;52.310;7.230;2023-06-01T10:25:44;4.57;;;3.63;;
7729;SDS011;3908;52.310;7.230;2023-06-01T10:28:32;3.70;;;3.03;;
7729;SDS011;3908;52.310;7.230;2023-06-01T10:31:34;5.47;;;3.10;;
7729;SDS011;3908;52.310;7.230;2023-06-01T10:34:36;4.73;;;3.40;;
7729;SDS011;3908;52.310;7.230;2023-06-01T10:37:23;4.00;;;3.17;;
7729;SDS011;3908;52.310;7.230;2023-06-01T10:40:11;4.10;;;3.20;;
7729;SDS011;3908;52.310;7.230;2023-06-01T10:43:07;5.23;;;3.30;;
7729;SDS011;3908;52.310;7.230;2023-06-01T10:45:54;5.17;;;3.10;;
7729;SDS011;3908;52.310;7.230;2023-06-01T10:48:50;4.90;;;3.20;;
7729;SDS011;3908;52.310;7.230;2023-06-01T10:51:37;3.87;;;3.13;;
7729;SDS011;3908;52.310;7.230;2023-06-01T10:54:25;6.07;;;3.67;;
7729;SDS011;3908;52.310;7.230;2023-06-01T10:57:19;5.40;;;3.47;;
7729;SDS011;3908;52.310;7.230;2023-06-01T11:00:11;4.27;;;3.17;;
7729;SDS011;3908;52.310;7.230;2023-06-01T11:03:00;4.53;;;2.63;;
7729;SDS011;3908;52.310;7.230;2023-06-01T11:05:49;4.07;;;2.73;;
7729;SDS011;3908;52.310;7.230;2023-06-01T11:08:53;3.43;;;3.00;;
7729;SDS011;3908;52.310;7.230;2023-06-01T11:11:56;4.93;;;3.00;;
7729;SDS011;3908;52.310;7.230;2023-06-01T11:15:07;5.43;;;3.53;;
7729;SDS011;3908;52.310;7.230;2023-06-01T11:17:56;10.57;;;3.60;;
7729;SDS011;3908;52.310;7.230;2023-06-01T11:20:43;3.80;;;3.20;;
7729;SDS011;3908;52.310;7.230;2023-06-01T11:23:31;5.13;;;3.10;;
7729;SDS011;3908;52.310;7.230;2023-06-01T11:26:20;9.37;;;4.03;;
7729;SDS011;3908;52.310;7.230;2023-06-01T11:29:11;4.83;;;3.50;;
7729;SDS011;3908;52.310;7.230;2023-06-01T11:31:58;6.60;;;3.57;;
7729;SDS011;3908;52.310;7.230;2023-06-01T11:34:47;7.80;;;3.30;;
7729;SDS011;3908;52.310;7.230;2023-06-01T11:37:34;4.93;;;3.27;;
7729;SDS011;3908;52.310;7.230;2023-06-01T11:40:20;4.07;;;2.80;;
7729;SDS011;3908;52.310;7.230;2023-06-01T11:43:07;4.77;;;2.80;;
7729;SDS011;3908;52.310;7.230;2023-06-01T11:45:59;3.87;;;3.03;;
7729;SDS011;3908;52.310;7.230;2023-06-01T11:48:57;7.60;;;3.47;;
7729;SDS011;3908;52.310;7.230;2023-06-01T11:51:48;4.07;;;3.20;;
7729;SDS011;3908;52.310;7.230;2023-06-01T11:54:36;7.03;;;3.87;;
7729;SDS011;3908;52.310;7.230;2023-06-01T11:57:23;5.27;;;4.00;;
7729;SDS011;3908;52.310;7.230;2023-06-01T12:00:11;4.70;;;2.67;;
7729;SDS011;3908;52.310;7.230;2023-06-01T12:03:08;3.83;;;3.07;;
7729;SDS011;3908;52.310;7.230;2023-06-01T12:05:54;4.57;;;3.70;;
7729;SDS011;3908;52.310;7.230;2023-06-01T12:08:43;9.40;;;2.93;;
7729;SDS011;3908;52.310;7.230;2023-06-01T12:11:29;4.53;;;2.80;;
7729;SDS011;3908;52.310;7.230;2023-06-01T12:14:17;5.23;;;3.03;;
7729;SDS011;3908;52.310;7.230;2023-06-01T12:17:04;3.83;;;2.87;;
7729;SDS011;3908;52.310;7.230;2023-06-01T12:19:53;4.10;;;3.20;;
7729;SDS011;3908;52.310;7.230;2023-06-01T12:22:40;7.27;;;3.83;;
7729;SDS011;3908;52.310;7.230;2023-06-01T12:25:28;4.43;;;3.30;;
7729;SDS011;3908;52.310;7.230;2023-06-01T12:28:16;5.60;;;3.20;;
7729;SDS011;3908;52.310;7.230;2023-06-01T12:31:09;5.87;;;3.83;;
7729;SDS011;3908;52.310;7.230;2023-06-01T12:33:58;5.63;;;4.00;;
7729;SDS011;3908;52.310;7.230;2023-06-01T12:36:49;4.40;;;3.27;;
7729;SDS011;3908;52.310;7.230;2023-06-01T12:39:36;6.40;;;3.70;;
7729;SDS011;3908;52.310;7.230;2023-06-01T12:42:37;6.03;;;3.97;;
7729;SDS011;3908;52.310;7.230;2023-06-01T12:45:24;3.83;;;3.37;;
7729;SDS011;3908;52.310;7.230;2023-06-01T12:51:12;4.63;;;4.07;;
7729;SDS011;3908;52.310;7.230;2023-06-01T12:53:59;6.23;;;3.80;;
7729;SDS011;3908;52.310;7.230;2023-06-01T12:56:47;6.10;;;3.80;;
7729;SDS011;3908;52.310;7.230;2023-06-01T12:59:35;7.73;;;3.60;;
7729;SDS011;3908;52.310;7.230;2023-06-01T13:02:22;6.53;;;4.03;;
7729;SDS011;3908;52.310;7.230;2023-06-01T13:05:09;5.30;;;4.20;;
7729;SDS011;3908;52.310;7.230;2023-06-01T13:07:56;6.10;;;4.00;;
7729;SDS011;3908;52.310;7.230;2023-06-01T13:10:44;6.27;;;4.00;;
7729;SDS011;3908;52.310;7.230;2023-06-01T13:13:34;5.50;;;3.50;;
7729;SDS011;3908;52.310;7.230;2023-06-01T13:16:22;4.03;;;3.23;;
7729;SDS011;3908;52.310;7.230;2023-06-01T13:19:10;5.60;;;3.60;;
7729;SDS011;3908;52.310;7.230;2023-06-01T13:21:57;5.20;;;3.57;;
7729;SDS011;3908;52.310;7.230;2023-06-01T13:24:44;6.53;;;3.70;;
7729;SDS011;3908;52.310;7.230;2023-06-01T13:27:31;5.20;;;3.80;;
7729;SDS011;3908;52.310;7.230;2023-06-01T13:30:18;4.80;;;3.47;;
7729;SDS011;3908;52.310;7.230;2023-06-01T13:33:07;9.63;;;5.70;;
7729;SDS011;3908;52.310;7.230;2023-06-01T13:35:54;8.87;;;5.40;;
7729;SDS011;3908;52.310;7.230;2023-06-01T13:38:40;11.50;;;6.10;;
7729;SDS011;3908;52.310;7.230;2023-06-01T13:41:27;11.93;;;5.67;;
7729;SDS011;3908;52.310;7.230;2023-06-01T13:44:14;9.23;;;5.53;;
7729;SDS011;3908;52.310;7.230;2023-06-01T13:47:03;10.07;;;6.10;;
7729;SDS011;3908;52.310;7.230;2023-06-01T13:49:51;13.17;;;6.87;;
7729;SDS011;3908;52.310;7.230;2023-06-01T13:52:38;9.57;;;6.67;;
7729;SDS011;3908;52.310;7.230;2023-06-01T13:55:25;16.53;;;7.60;;
7729;SDS011;3908;52.310;7.230;2023-06-01T13:58:13;10.70;;;6.27;;
7729;SDS011;3908;52.310;7.230;2023-06-01T14:01:00;13.87;;;7.03;;
7729;SDS011;3908;52.310;7.230;2023-06-01T14:03:47;12.73;;;6.37;;
7729;SDS011;3908;52.310;7.230;2023-06-01T14:06:35;10.07;;;6.40;;
7729;SDS011;3908;52.310;7.230;2023-06-01T14:09:22;9.77;;;6.77;;
7729;SDS011;3908;52.310;7.230;2023-06-01T14:12:09;13.63;;;6.00;;
7729;SDS011;3908;52.310;7.230;2023-06-01T14:14:57;9.10;;;5.70;;
7729;SDS011;3908;52.310;7.230;2023-06-01T14:17:43;13.03;;;5.83;;
7729;SDS011;3908;52.310;7.230;2023-06-01T14:20:30;11.07;;;5.33;;
7729;SDS011;3908;52.310;7.230;2023-06-01T14:23:19;6.47;;;4.87;;
7729;SDS011;3908;52.310;7.230;2023-06-01T14:26:06;8.77;;;4.73;;
7729;SDS011;3908;52.310;7.230;2023-06-01T14:28:53;9.53;;;5.00;;
7729;SDS011;3908;52.310;7.230;2023-06-01T14:31:39;9.57;;;4.77;;
7729;SDS011;3908;52.310;7.230;2023-06-01T14:34:27;10.60;;;4.50;;
7729;SDS011;3908;52.310;7.230;2023-06-01T14:37:14;9.60;;;4.20;;
7729;SDS011;3908;52.310;7.230;2023-06-01T14:40:02;9.37;;;4.47;;
7729;SDS011;3908;52.310;7.230;2023-06-01T14:42:50;7.33;;;4.30;;
7729;SDS011;3908;52.310;7.230;2023-06-01T14:45:36;11.83;;;5.30;;
7729;SDS011;3908;52.310;7.230;2023-06-01T14:48:23;12.67;;;4.33;;
7729;SDS011;3908;52.310;7.230;2023-06-01T14:51:10;10.37;;;4.50;;
7729;SDS011;3908;52.310;7.230;2023-06-01T14:53:57;9.70;;;4.30;;
7729;SDS011;3908;52.310;7.230;2023-06-01T14:56:45;11.23;;;4.20;;
7729;SDS011;3908;52.310;7.230;2023-06-01T14:59:32;8.10;;;4.40;;
7729;SDS011;3908;52.310;7.230;2023-06-01T15:02:21;10.43;;;4.30;;
7729;SDS011;3908;52.310;7.230;2023-06-01T15:05:08;8.70;;;3.90;;
7729;SDS011;3908;52.310;7.230;2023-06-01T15:07:55;9.17;;;4.13;;
7729;SDS011;3908;52.310;7.230;2023-06-01T15:10:42;7.10;;;4.10;;
7729;SDS011;3908;52.310;7.230;2023-06-01T15:13:32;7.57;;;4.37;;
7729;SDS011;3908;52.310;7.230;2023-06-01T15:16:19;5.87;;;3.57;;
7729;SDS011;3908;52.310;7.230;2023-06-01T15:19:05;8.57;;;4.30;;
7729;SDS011;3908;52.310;7.230;2023-06-01T15:21:52;8.07;;;3.73;;
7729;SDS011;3908;52.310;7.230;2023-06-01T15:24:39;8.23;;;4.00;;
7729;SDS011;3908;52.310;7.230;2023-06-01T15:27:26;7.90;;;4.07;;
7729;SDS011;3908;52.310;7.230;2023-06-01T15:30:14;7.83;;;4.57;;
7729;SDS011;3908;52.310;7.230;2023-06-01T15:33:01;7.73;;;4.53;;
7729;SDS011;3908;52.310;7.230;2023-06-01T15:35:48;10.67;;;4.13;;
7729;SDS011;3908;52.310;7.230;2023-06-01T15:38:35;8.37;;;3.90;;
7729;SDS011;3908;52.310;7.230;2023-06-01T15:41:22;10.33;;;4.10;;
7729;SDS011;3908;52.310;7.230;2023-06-01T15:44:09;9.37;;;3.97;;
7729;SDS011;3908;52.310;7.230;2023-06-01T15:46:57;7.50;;;3.80;;
7729;SDS011;3908;52.310;7.230;2023-06-01T15:49:44;9.07;;;3.90;;
7729;SDS011;3908;52.310;7.230;2023-06-01T15:52:31;11.20;;;4.00;;
7729;SDS011;3908;52.310;7.230;2023-06-01T15:55:18;7.63;;;4.03;;
7729;SDS011;3908;52.310;7.230;2023-06-01T15:58:06;7.33;;;3.90;;
7729;SDS011;3908;52.310;7.230;2023-06-01T16:00:53;8.13;;;4.37;;
7729;SDS011;3908;52.310;7.230;2023-06-01T16:03:41;12.03;;;4.37;;
7729;SDS011;3908;52.310;7.230;2023-06-01T16:06:28;6.27;;;4.30;;
7729;SDS011;3908;52.310;7.230;2023-06-01T16:09:14;11.27;;;4.03;;
7729;SDS011;3908;52.310;7.230;2023-06-01T16:12:01;7.83;;;3.37;;
7729;SDS011;3908;52.310;7.230;2023-06-01T16:14:48;7.63;;;3.50;;
7729;SDS011;3908;52.310;7.230;2023-06-01T16:17:35;8.00;;;3.77;;
7729;SDS011;3908;52.310;7.230;2023-06-01T16:20:23;9.60;;;4.17;;
7729;SDS011;3908;52.310;7.230;2023-06-01T16:23:10;8.43;;;3.60;;
7729;SDS011;3908;52.310;7.230;2023-06-01T16:25:57;8.80;;;4.37;;
7729;SDS011;3908;52.310;7.230;2023-06-01T16:28:43;9.83;;;3.80;;
7729;SDS011;3908;52.310;7.230;2023-06-01T16:31:34;10.43;;;4.03;;
7729;SDS011;3908;52.310;7.230;2023-06-01T16:34:21;5.57;;;3.53;;
7729;SDS011;3908;52.310;7.230;2023-06-01T16:37:09;5.90;;;3.70;;
7729;SDS011;3908;52.310;7.230;2023-06-01T16:39:56;9.10;;;3.63;;
7729;SDS011;3908;52.310;7.230;2023-06-01T16:42:43;6.77;;;3.60;;
7729;SDS011;3908;52.310;7.230;2023-06-01T16:45:30;7.00;;;3.60;;
7729;SDS011;3908;52.310;7.230;2023-06-01T16:48:17;13.30;;;3.73;;
7729;SDS011;3908;52.310;7.230;2023-06-01T16:51:04;14.50;;;3.87;;
7729;SDS011;3908;52.310;7.230;2023-06-01T16:53:52;6.23;;;3.67;;
7729;SDS011;3908;52.310;7.230;2023-06-01T16:56:38;9.47;;;3.23;;
7729;SDS011;3908;52.310;7.230;2023-06-01T16:59:25;10.00;;;3.57;;
7729;SDS011;3908;52.310;7.230;2023-06-01T17:02:12;10.67;;;3.87;;
7729;SDS011;3908;52.310;7.230;2023-06-01T17:04:59;6.40;;;3.80;;
7729;SDS011;3908;52.310;7.230;2023-06-01T17:07:46;10.33;;;3.50;;
7729;SDS011;3908;52.310;7.230;2023-06-01T17:10:34;7.47;;;3.67;;
7729;SDS011;3908;52.310;7.230;2023-06-01T17:13:21;7.30;;;3.30;;
7729;SDS011;3908;52.310;7.230;2023-06-01T17:16:07;5.53;;;3.60;;
7729;SDS011;3908;52.310;7.230;2023-06-01T17:18:54;10.27;;;3.30;;
7729;SDS011;3908;52.310;7.230;2023-06-01T17:21:41;8.50;;;3.67;;